Time,TemperatureF,DewpointF,PressureIn,WindDirection,WindDirectionDegrees,WindSpeedMPH,WindSpeedGustMPH,Humidity,HourlyPrecipIn,Conditions,Clouds,dailyrainin,SoftwareType,DateUTC
2013-05-30 00:00:00,74.7,67.0,30.03,ENE,67,8.0,10.0,77,0.00,,,0.01,Wunderground v.1.15,2013-05-30 04:00:00,
2013-05-30 00:05:00,74.7,67.0,30.02,ENE,66,8.0,10.0,77,0.00,,,0.00,Wunderground v.1.15,2013-05-30 04:05:00,
2013-05-30 00:10:00,74.8,67.1,30.02,ENE,65,8.0,9.0,77,0.00,,,0.00,Wunderground v.1.15,2013-05-30 04:10:00,
2013-05-30 00:15:00,74.9,67.2,30.03,ENE,76,9.0,9.0,77,0.00,,,0.00,Wunderground v.1.15,2013-05-30 04:15:00,
2013-05-30 00:20:00,75.1,67.4,30.02,East,85,10.0,13.0,77,0.00,,,0.00,Wunderground v.1.15,2013-05-30 04:20:00,
2013-05-30 00:25:00,75.2,67.5,30.02,ENE,76,10.0,13.0,77,0.00,,,0.00,Wunderground v.1.15,2013-05-30 04:25:00,
2013-05-30 00:35:00,75.3,67.6,30.02,East,90,9.0,10.0,77,0.00,,,0.00,Wunderground v.1.15,2013-05-30 04:35:00,
2013-05-30 00:45:00,75.4,67.7,30.02,ENE,74,9.0,9.0,77,0.00,,,0.00,Wunderground v.1.15,2013-05-30 04:45:00,
2013-05-30 00:50:00,75.4,67.7,30.02,East,92,8.0,8.0,77,0.00,,,0.00,Wunderground v.1.15,2013-05-30 04:50:00,
2013-05-30 01:00:00,75.4,67.7,30.02,East,82,8.0,9.0,77,0.00,,,0.00,Wunderground v.1.15,2013-05-30 05:00:00,
2013-05-30 01:10:00,75.2,67.5,30.02,ENE,65,7.0,7.0,77,0.00,,,0.00,Wunderground v.1.15,2013-05-30 05:10:00,
2013-05-30 01:20:00,75.1,67.4,30.02,ENE,72,6.0,8.0,77,0.00,,,0.00,Wunderground v.1.15,2013-05-30 05:20:00,
2013-05-30 01:30:00,75.0,67.7,30.01,ENE,74,7.0,10.0,78,0.00,,,0.00,Wunderground v.1.15,2013-05-30 05:30:00,
2013-05-30 01:40:00,74.8,67.5,30.01,ENE,70,6.0,9.0,78,0.00,,,0.00,Wunderground v.1.15,2013-05-30 05:40:00,
2013-05-30 01:45:00,74.7,67.4,30.01,ENE,67,6.0,9.0,78,0.00,,,0.00,Wunderground v.1.15,2013-05-30 05:45:00,
2013-05-30 01:50:00,74.6,67.3,30.01,ENE,74,7.0,10.0,78,0.00,,,0.00,Wunderground v.1.15,2013-05-30 05:50:00,
2013-05-30 02:00:00,74.5,67.6,30.01,ENE,71,8.0,8.0,79,0.00,,,0.00,Wunderground v.1.15,2013-05-30 06:00:00,
2013-05-30 02:10:00,74.4,67.5,30.01,ENE,76,6.0,8.0,79,0.00,,,0.00,Wunderground v.1.15,2013-05-30 06:10:00,
2013-05-30 02:15:00,74.4,67.5,30.01,ENE,69,7.0,8.0,79,0.00,,,0.00,Wunderground v.1.15,2013-05-30 06:15:00,
2013-05-30 02:25:00,74.4,67.5,30.01,ENE,67,6.0,7.0,79,0.00,,,0.00,Wunderground v.1.15,2013-05-30 06:25:00,
2013-05-30 02:35:00,74.4,67.5,30.01,ENE,70,5.0,6.0,79,0.00,,,0.00,Wunderground v.1.15,2013-05-30 06:35:00,
2013-05-30 02:45:00,74.4,67.1,30.01,East,80,6.0,6.0,78,0.00,,,0.00,Wunderground v.1.15,2013-05-30 06:45:00,
2013-05-30 02:50:00,74.3,67.0,30.00,ENE,74,6.0,6.0,78,0.00,,,0.00,Wunderground v.1.15,2013-05-30 06:50:00,
2013-05-30 02:55:00,74.2,66.9,30.01,East,86,6.0,7.0,78,0.00,,,0.00,Wunderground v.1.15,2013-05-30 06:55:00,
2013-05-30 03:00:00,74.2,66.9,30.00,ENE,76,6.0,6.0,78,0.00,,,0.00,Wunderground v.1.15,2013-05-30 07:00:00,
2013-05-30 03:05:00,74.1,66.8,30.00,East,79,6.0,10.0,78,0.00,,,0.00,Wunderground v.1.15,2013-05-30 07:05:00,
2013-05-30 03:15:00,73.9,66.6,30.00,ENE,68,5.0,6.0,78,0.00,,,0.00,Wunderground v.1.15,2013-05-30 07:15:00,
2013-05-30 03:25:00,73.9,66.6,30.00,ENE,77,6.0,9.0,78,0.00,,,0.00,Wunderground v.1.15,2013-05-30 07:25:00,
2013-05-30 03:30:00,74.0,66.7,30.00,ENE,74,6.0,6.0,78,0.00,,,0.00,Wunderground v.1.15,2013-05-30 07:30:00,
2013-05-30 03:40:00,73.9,66.6,30.00,ENE,71,6.0,8.0,78,0.00,,,0.00,Wunderground v.1.15,2013-05-30 07:40:00,
2013-05-30 03:45:00,74.0,66.7,30.00,East,82,6.0,8.0,78,0.00,,,0.00,Wunderground v.1.15,2013-05-30 07:45:00,
2013-05-30 03:50:00,74.0,66.7,30.00,East,93,6.0,6.0,78,0.00,,,0.00,Wunderground v.1.15,2013-05-30 07:50:00,
2013-05-30 03:55:00,74.0,66.7,30.00,ENE,78,6.0,6.0,78,0.00,,,0.00,Wunderground v.1.15,2013-05-30 07:55:00,
2013-05-30 04:05:00,74.0,66.7,30.00,ENE,62,6.0,10.0,78,0.00,,,0.00,Wunderground v.1.15,2013-05-30 08:05:00,
2013-05-30 04:10:00,74.0,66.7,30.00,East,79,6.0,6.0,78,0.00,,,0.00,Wunderground v.1.15,2013-05-30 08:10:00,
2013-05-30 04:15:00,74.1,66.8,30.00,ENE,67,7.0,8.0,78,0.00,,,0.00,Wunderground v.1.15,2013-05-30 08:15:00,
2013-05-30 04:25:00,74.2,66.9,30.00,ENE,68,6.0,7.0,78,0.00,,,0.00,Wunderground v.1.15,2013-05-30 08:25:00,
2013-05-30 04:35:00,74.3,67.0,30.00,ENE,78,7.0,7.0,78,0.00,,,0.00,Wunderground v.1.15,2013-05-30 08:35:00,
2013-05-30 04:45:00,74.1,66.8,30.00,ENE,78,6.0,7.0,78,0.00,,,0.00,Wunderground v.1.15,2013-05-30 08:45:00,
2013-05-30 04:55:00,74.0,66.7,30.00,East,80,7.0,9.0,78,0.00,,,0.00,Wunderground v.1.15,2013-05-30 08:55:00,
2013-05-30 05:00:00,73.9,66.6,30.00,ENE,71,7.0,7.0,78,0.00,,,0.00,Wunderground v.1.15,2013-05-30 09:00:00,
2013-05-30 05:05:00,73.9,66.6,30.00,East,88,7.0,7.0,78,0.00,,,0.00,Wunderground v.1.15,2013-05-30 09:05:00,
2013-05-30 05:10:00,73.9,67.0,30.00,ENE,74,6.0,7.0,79,0.00,,,0.00,Wunderground v.1.15,2013-05-30 09:10:00,
2013-05-30 05:15:00,73.9,67.0,30.00,ENE,74,5.0,7.0,79,0.00,,,0.00,Wunderground v.1.15,2013-05-30 09:15:00,
2013-05-30 05:25:00,73.9,67.0,29.99,ENE,68,6.0,6.0,79,0.00,,,0.00,Wunderground v.1.15,2013-05-30 09:25:00,
2013-05-30 05:30:00,73.9,67.0,29.99,ENE,68,5.0,8.0,79,0.00,,,0.00,Wunderground v.1.15,2013-05-30 09:30:00,
2013-05-30 05:35:00,73.9,67.0,29.99,ENE,78,6.0,10.0,79,0.00,,,0.00,Wunderground v.1.15,2013-05-30 09:35:00,
2013-05-30 05:40:00,73.9,67.0,30.00,ENE,66,6.0,6.0,79,0.00,,,0.00,Wunderground v.1.15,2013-05-30 09:40:00,
2013-05-30 05:45:00,73.9,67.0,30.00,ENE,76,6.0,6.0,79,0.00,,,0.00,Wunderground v.1.15,2013-05-30 09:45:00,
2013-05-30 05:55:00,73.8,66.9,30.00,ENE,63,6.0,6.0,79,0.00,,,0.00,Wunderground v.1.15,2013-05-30 09:55:00,
2013-05-30 06:05:00,73.7,66.8,30.00,ENE,61,5.0,9.0,79,0.00,,,0.00,Wunderground v.1.15,2013-05-30 10:05:00,
2013-05-30 06:10:00,73.6,66.7,30.00,ENE,61,5.0,8.0,79,0.00,,,0.00,Wunderground v.1.15,2013-05-30 10:10:00,
2013-05-30 06:15:00,73.6,66.7,30.00,ENE,63,6.0,8.0,79,0.00,,,0.00,Wunderground v.1.15,2013-05-30 10:15:00,
2013-05-30 06:20:00,73.5,66.6,30.00,ENE,61,6.0,6.0,79,0.00,,,0.00,Wunderground v.1.15,2013-05-30 10:20:00,
2013-05-30 06:30:00,73.4,66.5,30.00,ENE,65,7.0,7.0,79,0.00,,,0.00,Wunderground v.1.15,2013-05-30 10:30:00,
2013-05-30 06:35:00,73.4,66.5,30.00,ENE,58,7.0,7.0,79,0.00,,,0.00,Wunderground v.1.15,2013-05-30 10:35:00,
2013-05-30 06:45:00,73.4,66.5,30.01,NE,49,6.0,6.0,79,0.00,,,0.00,Wunderground v.1.15,2013-05-30 10:45:00,
2013-05-30 06:50:00,73.4,66.5,30.01,ENE,61,5.0,8.0,79,0.00,,,0.00,Wunderground v.1.15,2013-05-30 10:50:00,
2013-05-30 06:55:00,73.5,66.6,30.01,ENE,64,5.0,10.0,79,0.00,,,0.00,Wunderground v.1.15,2013-05-30 10:55:00,
2013-05-30 07:05:00,73.7,66.8,30.01,ENE,61,5.0,9.0,79,0.00,,,0.00,Wunderground v.1.15,2013-05-30 11:05:00,
2013-05-30 07:15:00,74.1,67.2,30.01,NE,54,6.0,7.0,79,0.00,,,0.00,Wunderground v.1.15,2013-05-30 11:15:00,
2013-05-30 07:25:00,74.6,67.7,30.02,ENE,61,6.0,7.0,79,0.00,,,0.00,Wunderground v.1.15,2013-05-30 11:25:00,
2013-05-30 07:30:00,74.8,67.8,30.02,ENE,63,6.0,6.0,79,0.00,,,0.00,Wunderground v.1.15,2013-05-30 11:30:00,
2013-05-30 07:35:00,75.0,67.7,30.02,ENE,65,6.0,8.0,78,0.00,,,0.00,Wunderground v.1.15,2013-05-30 11:35:00,
2013-05-30 07:40:00,75.3,68.0,30.02,ENE,68,6.0,6.0,78,0.00,,,0.00,Wunderground v.1.15,2013-05-30 11:40:00,
2013-05-30 07:50:00,75.7,68.0,30.02,ENE,65,7.0,7.0,77,0.00,,,0.00,Wunderground v.1.15,2013-05-30 11:50:00,
2013-05-30 07:55:00,75.9,68.2,30.02,ENE,59,7.0,9.0,77,0.00,,,0.00,Wunderground v.1.15,2013-05-30 11:55:00,
2013-05-30 08:00:00,76.1,68.4,30.02,ENE,67,8.0,9.0,77,0.00,,,0.00,Wunderground v.1.15,2013-05-30 12:00:00,
2013-05-30 08:10:00,76.6,68.8,30.03,ENE,57,6.0,7.0,77,0.00,,,0.00,Wunderground v.1.15,2013-05-30 12:10:00,
2013-05-30 08:20:00,77.1,69.3,30.03,ENE,61,7.0,9.0,77,0.00,,,0.00,Wunderground v.1.15,2013-05-30 12:20:00,
2013-05-30 08:30:00,77.4,69.2,30.03,ENE,76,9.0,11.0,76,0.00,,,0.00,Wunderground v.1.15,2013-05-30 12:30:00,
2013-05-30 08:35:00,77.6,69.4,30.03,ENE,76,9.0,11.0,76,0.00,,,0.00,Wunderground v.1.15,2013-05-30 12:35:00,
2013-05-30 08:45:00,78.1,69.9,30.03,East,82,8.0,9.0,76,0.00,,,0.00,Wunderground v.1.15,2013-05-30 12:45:00,
2013-05-30 08:55:00,78.4,70.2,30.03,East,86,9.0,10.0,76,0.00,,,0.00,Wunderground v.1.15,2013-05-30 12:55:00,
2013-05-30 09:00:00,78.9,70.7,30.03,East,81,9.0,11.0,76,0.00,,,0.00,Wunderground v.1.15,2013-05-30 13:00:00,
2013-05-30 09:10:00,79.5,70.9,30.04,East,79,9.0,9.0,75,0.00,,,0.00,Wunderground v.1.15,2013-05-30 13:10:00,
2013-05-30 09:15:00,79.8,71.2,30.03,ENE,77,9.0,14.0,75,0.00,,,0.00,Wunderground v.1.15,2013-05-30 13:15:00,
2013-05-30 09:25:00,80.2,71.6,30.03,East,82,10.0,13.0,75,0.00,,,0.00,Wunderground v.1.15,2013-05-30 13:25:00,
2013-05-30 09:35:00,80.6,71.9,30.03,ENE,75,9.0,13.0,75,0.00,,,0.00,Wunderground v.1.15,2013-05-30 13:35:00,
2013-05-30 09:40:00,80.7,71.6,30.03,ENE,62,10.0,11.0,74,0.00,,,0.00,Wunderground v.1.15,2013-05-30 13:40:00,
2013-05-30 09:50:00,80.8,71.7,30.03,East,82,11.0,11.0,74,0.00,,,0.00,Wunderground v.1.15,2013-05-30 13:50:00,
2013-05-30 09:55:00,81.1,72.0,30.03,ENE,75,11.0,11.0,74,0.00,,,0.00,Wunderground v.1.15,2013-05-30 13:55:00,
2013-05-30 10:00:00,81.2,72.1,30.02,ENE,69,10.0,12.0,74,0.00,,,0.00,Wunderground v.1.15,2013-05-30 14:00:00,
2013-05-30 10:05:00,81.4,72.3,30.02,East,84,10.0,12.0,74,0.00,,,0.00,Wunderground v.1.15,2013-05-30 14:05:00,
2013-05-30 10:15:00,81.9,72.8,30.02,ENE,63,10.0,12.0,74,0.00,,,0.00,Wunderground v.1.15,2013-05-30 14:15:00,
2013-05-30 10:20:00,81.8,72.7,30.02,East,84,11.0,11.0,74,0.00,,,0.00,Wunderground v.1.15,2013-05-30 14:20:00,
2013-05-30 10:30:00,82.3,73.2,30.02,ENE,65,11.0,11.0,74,0.00,,,0.00,Wunderground v.1.15,2013-05-30 14:30:00,
2013-05-30 10:35:00,82.7,73.2,30.01,ENE,67,10.0,13.0,73,0.00,,,0.00,Wunderground v.1.15,2013-05-30 14:35:00,
2013-05-30 10:40:00,82.4,72.9,30.02,East,82,11.0,11.0,73,0.00,,,0.00,Wunderground v.1.15,2013-05-30 14:40:00,
2013-05-30 10:45:00,82.3,73.2,30.02,East,87,12.0,12.0,74,0.00,,,0.00,Wunderground v.1.15,2013-05-30 14:45:00,
2013-05-30 10:55:00,82.6,73.1,30.02,East,98,11.0,11.0,73,0.00,,,0.00,Wunderground v.1.15,2013-05-30 14:55:00,
2013-05-30 11:00:00,83.1,73.1,30.02,ENE,78,11.0,15.0,72,0.00,,,0.00,Wunderground v.1.15,2013-05-30 15:00:00,
2013-05-30 11:10:00,83.1,73.1,30.02,ENE,61,10.0,10.0,72,0.00,,,0.00,Wunderground v.1.15,2013-05-30 15:10:00,
2013-05-30 11:15:00,83.2,73.2,30.02,ENE,65,10.0,10.0,72,0.00,,,0.00,Wunderground v.1.15,2013-05-30 15:15:00,
2013-05-30 11:25:00,83.5,73.5,30.02,East,94,10.0,11.0,72,0.00,,,0.00,Wunderground v.1.15,2013-05-30 15:25:00,
2013-05-30 11:30:00,83.4,73.0,30.03,East,88,11.0,11.0,71,0.00,,,0.00,Wunderground v.1.15,2013-05-30 15:30:00,
2013-05-30 11:40:00,83.0,73.0,30.02,East,97,10.0,12.0,72,0.00,,,0.00,Wunderground v.1.15,2013-05-30 15:40:00,
2013-05-30 11:50:00,83.0,73.0,30.01,East,91,9.0,9.0,72,0.00,,,0.00,Wunderground v.1.15,2013-05-30 15:50:00,
2013-05-30 11:55:00,83.4,73.4,30.01,ENE,78,9.0,9.0,72,0.00,,,0.00,Wunderground v.1.15,2013-05-30 15:55:00,
2013-05-30 12:05:00,84.2,73.8,30.01,ENE,76,10.0,11.0,71,0.00,,,0.00,Wunderground v.1.15,2013-05-30 16:05:00,
2013-05-30 12:10:00,84.5,74.1,30.01,ENE,61,10.0,10.0,71,0.00,,,0.00,Wunderground v.1.15,2013-05-30 16:10:00,
2013-05-30 12:20:00,85.4,74.1,30.01,East,98,8.0,11.0,69,0.00,,,0.00,Wunderground v.1.15,2013-05-30 16:20:00,
2013-05-30 12:30:00,85.4,74.1,30.01,East,85,10.0,13.0,69,0.00,,,0.00,Wunderground v.1.15,2013-05-30 16:30:00,
2013-05-30 12:35:00,85.5,74.6,30.01,East,101,10.0,13.0,70,0.00,,,0.00,Wunderground v.1.15,2013-05-30 16:35:00,
2013-05-30 12:40:00,85.9,75.0,30.01,East,86,8.0,9.0,70,0.00,,,0.00,Wunderground v.1.15,2013-05-30 16:40:00,
2013-05-30 12:50:00,85.2,74.3,30.01,ENE,74,8.0,8.0,70,0.00,,,0.00,Wunderground v.1.15,2013-05-30 16:50:00,
2013-05-30 13:00:00,85.6,74.7,30.01,ENE,76,7.0,10.0,70,0.00,,,0.00,Wunderground v.1.15,2013-05-30 17:00:00,
2013-05-30 13:10:00,85.5,74.6,30.00,East,86,9.0,9.0,70,0.00,,,0.00,Wunderground v.1.15,2013-05-30 17:10:00,
2013-05-30 13:15:00,85.9,74.5,30.00,ENE,77,8.0,9.0,69,0.00,,,0.00,Wunderground v.1.15,2013-05-30 17:15:00,
2013-05-30 13:30:00,86.2,74.4,30.00,ESE,119,10.0,12.0,68,0.00,,,0.00,Wunderground v.1.15,2013-05-30 17:30:00,
2013-05-30 13:40:00,86.3,74.5,30.00,East,101,10.0,10.0,68,0.00,,,0.00,Wunderground v.1.15,2013-05-30 17:40:00,
2013-05-30 13:50:00,86.3,73.6,29.99,East,86,10.0,11.0,66,0.00,,,0.00,Wunderground v.1.15,2013-05-30 17:50:00,
2013-05-30 14:00:00,85.3,75.7,29.99,SE,137,9.0,9.0,73,0.00,,,0.00,Wunderground v.1.15,2013-05-30 18:00:00,
2013-05-30 14:05:00,84.5,74.9,29.99,SE,146,8.0,9.0,73,0.00,,,0.00,Wunderground v.1.15,2013-05-30 18:05:00,
2013-05-30 14:15:00,84.7,74.7,29.98,South,182,7.0,7.0,72,0.00,,,0.00,Wunderground v.1.15,2013-05-30 18:15:00,
2013-05-30 14:20:00,85.0,75.0,29.98,South,174,7.0,10.0,72,0.00,,,0.00,Wunderground v.1.15,2013-05-30 18:20:00,
2013-05-30 14:30:00,84.3,74.3,29.98,SSE,147,8.0,8.0,72,0.00,,,0.00,Wunderground v.1.15,2013-05-30 18:30:00,
2013-05-30 14:40:00,83.8,74.2,29.98,SE,125,5.0,5.0,73,0.00,,,0.00,Wunderground v.1.15,2013-05-30 18:40:00,
2013-05-30 14:45:00,83.9,74.3,29.98,SE,126,4.0,5.0,73,0.00,,,0.00,Wunderground v.1.15,2013-05-30 18:45:00,
2013-05-30 14:55:00,85.2,75.1,29.97,SSE,154,6.0,10.0,72,0.00,,,0.00,Wunderground v.1.15,2013-05-30 18:55:00,
2013-05-30 15:00:00,85.4,75.3,29.97,SE,131,6.0,6.0,72,0.00,,,0.00,Wunderground v.1.15,2013-05-30 19:00:00,
2013-05-30 15:05:00,85.1,75.1,29.97,ESE,122,6.0,7.0,72,0.00,,,0.00,Wunderground v.1.15,2013-05-30 19:05:00,
2013-05-30 15:10:00,84.9,74.9,29.97,SE,145,6.0,6.0,72,0.00,,,0.00,Wunderground v.1.15,2013-05-30 19:10:00,
2013-05-30 15:20:00,84.7,74.7,29.97,ESE,117,7.0,7.0,72,0.00,,,0.00,Wunderground v.1.15,2013-05-30 19:20:00,
2013-05-30 15:25:00,85.0,75.0,29.97,East,94,7.0,7.0,72,0.00,,,0.00,Wunderground v.1.15,2013-05-30 19:25:00,
2013-05-30 15:35:00,84.9,74.9,29.97,SE,128,6.0,9.0,72,0.00,,,0.00,Wunderground v.1.15,2013-05-30 19:35:00,
2013-05-30 15:45:00,84.3,74.7,29.96,South,172,6.0,7.0,73,0.00,,,0.00,Wunderground v.1.15,2013-05-30 19:45:00,
2013-05-30 15:50:00,83.8,74.6,29.96,South,171,7.0,9.0,74,0.00,,,0.00,Wunderground v.1.15,2013-05-30 19:50:00,
2013-05-30 16:00:00,81.8,73.1,29.96,SSE,155,7.0,7.0,75,0.00,,,0.00,Wunderground v.1.15,2013-05-30 20:00:00,
2013-05-30 16:05:00,81.0,72.3,29.96,SE,144,6.0,7.0,75,0.00,,,0.00,Wunderground v.1.15,2013-05-30 20:05:00,
2013-05-30 16:10:00,80.5,72.2,29.96,SSE,148,4.0,4.0,76,0.00,,,0.00,Wunderground v.1.15,2013-05-30 20:10:00,
2013-05-30 16:15:00,80.2,71.9,29.96,SE,145,4.0,6.0,76,0.00,,,0.00,Wunderground v.1.15,2013-05-30 20:15:00,
2013-05-30 16:25:00,82.1,73.0,29.95,East,88,6.0,11.0,74,0.00,,,0.00,Wunderground v.1.15,2013-05-30 20:25:00,
2013-05-30 16:30:00,83.1,73.5,29.95,ENE,71,6.0,9.0,73,0.00,,,0.00,Wunderground v.1.15,2013-05-30 20:30:00,
2013-05-30 16:40:00,84.0,74.4,29.94,ESE,110,6.0,12.0,73,0.00,,,0.00,Wunderground v.1.15,2013-05-30 20:40:00,
2013-05-30 16:45:00,83.9,73.9,29.95,ESE,111,8.0,12.0,72,0.00,,,0.00,Wunderground v.1.15,2013-05-30 20:45:00,
2013-05-30 16:55:00,83.5,73.9,29.95,East,92,10.0,14.0,73,0.00,,,0.00,Wunderground v.1.15,2013-05-30 20:55:00,
2013-05-30 17:00:00,83.2,73.6,29.95,East,94,12.0,12.0,73,0.00,,,0.00,Wunderground v.1.15,2013-05-30 21:00:00,
2013-05-30 17:10:00,83.4,73.4,29.95,ENE,69,10.0,12.0,72,0.00,,,0.00,Wunderground v.1.15,2013-05-30 21:10:00,
2013-05-30 17:20:00,83.6,73.6,29.95,East,87,10.0,10.0,72,0.00,,,0.00,Wunderground v.1.15,2013-05-30 21:20:00,
2013-05-30 17:25:00,83.3,73.3,29.95,ESE,108,9.0,12.0,72,0.00,,,0.00,Wunderground v.1.15,2013-05-30 21:25:00,
2013-05-30 17:35:00,83.1,73.5,29.95,East,98,8.0,10.0,73,0.00,,,0.00,Wunderground v.1.15,2013-05-30 21:35:00,
2013-05-30 17:45:00,83.2,73.6,29.95,ENE,66,6.0,10.0,73,0.00,,,0.00,Wunderground v.1.15,2013-05-30 21:45:00,
2013-05-30 17:50:00,83.2,73.2,29.95,ESE,105,6.0,8.0,72,0.00,,,0.00,Wunderground v.1.15,2013-05-30 21:50:00,
2013-05-30 17:55:00,83.3,73.3,29.95,ENE,63,7.0,10.0,72,0.00,,,0.00,Wunderground v.1.15,2013-05-30 21:55:00,
2013-05-30 18:05:00,83.4,73.0,29.96,ESE,117,8.0,15.0,71,0.00,,,0.00,Wunderground v.1.15,2013-05-30 22:05:00,
2013-05-30 18:10:00,82.0,72.5,29.96,East,96,12.0,17.0,73,0.00,,,0.00,Wunderground v.1.15,2013-05-30 22:10:00,
2013-05-30 18:15:00,81.0,71.9,29.96,ENE,78,14.0,17.0,74,0.00,,,0.00,Wunderground v.1.15,2013-05-30 22:15:00,
2013-05-30 18:25:00,80.1,71.5,29.97,East,88,13.0,17.0,75,0.00,,,0.00,Wunderground v.1.15,2013-05-30 22:25:00,
2013-05-30 18:30:00,79.9,71.3,29.97,East,87,12.0,14.0,75,0.00,,,0.00,Wunderground v.1.15,2013-05-30 22:30:00,
2013-05-30 18:35:00,79.6,71.0,29.97,ESE,105,11.0,14.0,75,0.00,,,0.00,Wunderground v.1.15,2013-05-30 22:35:00,
2013-05-30 18:40:00,79.3,71.1,29.97,ESE,117,11.0,11.0,76,0.00,,,0.00,Wunderground v.1.15,2013-05-30 22:40:00,
2013-05-30 18:45:00,79.2,71.0,29.97,East,90,10.0,11.0,76,0.00,,,0.00,Wunderground v.1.15,2013-05-30 22:45:00,
2013-05-30 18:55:00,79.3,71.1,29.97,East,85,7.0,8.0,76,0.00,,,0.00,Wunderground v.1.15,2013-05-30 22:55:00,
2013-05-30 19:05:00,79.7,71.5,29.97,East,82,5.0,7.0,76,0.00,,,0.00,Wunderground v.1.15,2013-05-30 23:05:00,
2013-05-30 19:10:00,79.9,71.7,29.98,ENE,60,6.0,6.0,76,0.00,,,0.00,Wunderground v.1.15,2013-05-30 23:10:00,
2013-05-30 19:20:00,78.8,70.6,29.98,ENE,61,11.0,11.0,76,0.00,,,0.00,Wunderground v.1.15,2013-05-30 23:20:00,
2013-05-30 19:30:00,78.1,69.9,29.98,ENE,57,10.0,10.0,76,0.00,,,0.00,Wunderground v.1.15,2013-05-30 23:30:00,
2013-05-30 19:35:00,77.9,70.1,29.98,ENE,74,10.0,10.0,77,0.00,,,0.00,Wunderground v.1.15,2013-05-30 23:35:00,
2013-05-30 19:45:00,78.0,70.2,29.98,NE,56,9.0,10.0,77,0.00,,,0.00,Wunderground v.1.15,2013-05-30 23:45:00,
2013-05-30 19:50:00,78.0,70.2,29.98,ENE,61,8.0,8.0,77,0.00,,,0.00,Wunderground v.1.15,2013-05-30 23:50:00,
2013-05-30 20:00:00,77.9,70.1,29.98,East,80,8.0,9.0,77,0.00,,,0.00,Wunderground v.1.15,2013-05-31 00:00:00,
2013-05-30 20:05:00,78.0,70.2,29.98,East,80,8.0,11.0,77,0.00,,,0.00,Wunderground v.1.15,2013-05-31 00:05:00,
2013-05-30 20:15:00,78.7,70.5,29.98,East,85,9.0,11.0,76,0.00,,,0.00,Wunderground v.1.15,2013-05-31 00:15:00,
2013-05-30 20:25:00,79.2,70.6,29.99,ENE,70,12.0,15.0,75,0.00,,,0.00,Wunderground v.1.15,2013-05-31 00:25:00,
2013-05-30 20:30:00,79.3,70.7,29.99,ESE,121,11.0,15.0,75,0.00,,,0.00,Wunderground v.1.15,2013-05-31 00:30:00,
2013-05-30 20:40:00,79.3,70.7,29.99,East,90,12.0,13.0,75,0.00,,,0.00,Wunderground v.1.15,2013-05-31 00:40:00,
2013-05-30 20:50:00,79.2,70.6,30.00,East,96,12.0,12.0,75,0.00,,,0.00,Wunderground v.1.15,2013-05-31 00:50:00,
2013-05-30 20:55:00,79.2,70.6,30.00,East,96,11.0,12.0,75,0.00,,,0.00,Wunderground v.1.15,2013-05-31 00:55:00,
2013-05-30 21:00:00,79.1,70.9,30.00,ENE,78,10.0,10.0,76,0.00,,,0.00,Wunderground v.1.15,2013-05-31 01:00:00,
2013-05-30 21:05:00,79.1,70.9,30.00,East,88,10.0,12.0,76,0.00,,,0.00,Wunderground v.1.15,2013-05-31 01:05:00,
2013-05-30 21:10:00,79.0,70.8,30.00,East,84,9.0,10.0,76,0.00,,,0.00,Wunderground v.1.15,2013-05-31 01:10:00,
2013-05-30 21:15:00,78.9,70.7,30.00,ESE,109,10.0,16.0,76,0.00,,,0.00,Wunderground v.1.15,2013-05-31 01:15:00,
2013-05-30 21:20:00,78.9,70.7,30.00,ENE,76,10.0,10.0,76,0.00,,,0.00,Wunderground v.1.15,2013-05-31 01:20:00,
2013-05-30 21:30:00,78.5,70.3,30.00,ENE,70,7.0,7.0,76,0.00,,,0.00,Wunderground v.1.15,2013-05-31 01:30:00,
2013-05-30 21:35:00,78.4,70.2,30.00,ENE,78,8.0,8.0,76,0.00,,,0.00,Wunderground v.1.15,2013-05-31 01:35:00,
2013-05-30 21:45:00,78.1,69.9,30.00,ENE,65,8.0,11.0,76,0.00,,,0.00,Wunderground v.1.15,2013-05-31 01:45:00,
2013-05-30 21:55:00,77.9,69.7,30.01,ENE,64,10.0,10.0,76,0.00,,,0.00,Wunderground v.1.15,2013-05-31 01:55:00,
2013-05-30 22:00:00,77.8,69.6,30.01,ENE,67,9.0,9.0,76,0.00,,,0.00,Wunderground v.1.15,2013-05-31 02:00:00,
2013-05-30 22:10:00,77.7,69.5,30.02,East,79,8.0,8.0,76,0.00,,,0.00,Wunderground v.1.15,2013-05-31 02:10:00,
2013-05-30 22:15:00,77.6,69.4,30.02,East,80,8.0,8.0,76,0.00,,,0.00,Wunderground v.1.15,2013-05-31 02:15:00,
2013-05-30 22:25:00,77.5,69.3,30.02,East,83,8.0,12.0,76,0.00,,,0.00,Wunderground v.1.15,2013-05-31 02:25:00,
2013-05-30 22:35:00,77.4,69.2,30.02,East,88,9.0,9.0,76,0.00,,,0.00,Wunderground v.1.15,2013-05-31 02:35:00,
2013-05-30 22:40:00,77.3,69.1,30.03,East,91,8.0,13.0,76,0.00,,,0.00,Wunderground v.1.15,2013-05-31 02:40:00,
2013-05-30 22:50:00,77.1,69.3,30.03,East,88,9.0,12.0,77,0.00,,,0.00,Wunderground v.1.15,2013-05-31 02:50:00,
2013-05-30 23:00:00,77.0,69.2,30.03,ENE,71,7.0,7.0,77,0.00,,,0.00,Wunderground v.1.15,2013-05-31 03:00:00,
2013-05-30 23:10:00,76.9,69.1,30.02,ENE,71,8.0,8.0,77,0.00,,,0.00,Wunderground v.1.15,2013-05-31 03:10:00,
2013-05-30 23:20:00,76.7,68.9,30.02,East,88,8.0,9.0,77,0.00,,,0.00,Wunderground v.1.15,2013-05-31 03:20:00,
2013-05-30 23:25:00,76.7,68.9,30.03,East,87,8.0,9.0,77,0.00,,,0.00,Wunderground v.1.15,2013-05-31 03:25:00,
2013-05-30 23:35:00,76.7,68.9,30.03,East,80,8.0,8.0,77,0.00,,,0.00,Wunderground v.1.15,2013-05-31 03:35:00,
2013-05-30 23:45:00,76.6,68.8,30.02,ENE,57,8.0,12.0,77,0.00,,,0.00,Wunderground v.1.15,2013-05-31 03:45:00,
2013-05-30 23:50:00,76.6,68.8,30.03,East,86,7.0,7.0,77,0.00,,,0.00,Wunderground v.1.15,2013-05-31 03:50:00,